createdAt,value
2016-08-11T00:00:07.824Z,9.1
2016-08-11T00:00:17.822Z,9.1
2016-08-11T00:00:27.823Z,9
2016-08-11T00:00:37.825Z,9
2016-08-11T00:00:47.824Z,9
2016-08-11T00:00:57.821Z,9.1
2016-08-11T00:01:07.821Z,9
2016-08-11T00:01:17.821Z,8.9
2016-08-11T00:01:27.820Z,9
2016-08-11T00:01:37.818Z,9
2016-08-11T00:01:47.818Z,9
2016-08-11T00:01:57.817Z,8.8
2016-08-11T00:02:07.818Z,8.9
2016-08-11T00:02:17.817Z,8.9
2016-08-11T00:02:27.816Z,8.9
2016-08-11T00:02:37.814Z,8.9
2016-08-11T00:02:47.816Z,8.9
2016-08-11T00:02:57.817Z,8.9
2016-08-11T00:03:07.813Z,8.9
2016-08-11T00:03:17.814Z,8.9
2016-08-11T00:03:27.812Z,9
2016-08-11T00:03:37.811Z,9
2016-08-11T00:03:47.811Z,9.1
2016-08-11T00:03:57.811Z,8.9
2016-08-11T00:04:07.812Z,8.9
2016-08-11T00:04:17.811Z,8.9
2016-08-11T00:04:27.813Z,9
2016-08-11T00:04:37.815Z,8.9
2016-08-11T00:04:47.808Z,9
2016-08-11T00:04:57.811Z,8.8
2016-08-11T00:05:07.808Z,8.9
2016-08-11T00:05:17.806Z,8.9
2016-08-11T00:05:27.807Z,8.8
2016-08-11T00:05:37.808Z,8.9
2016-08-11T00:05:47.807Z,9
2016-08-11T00:05:57.807Z,9
2016-08-11T00:06:07.812Z,8.9
2016-08-11T00:06:17.804Z,8.8
2016-08-11T00:06:27.805Z,9
2016-08-11T00:06:37.803Z,8.9
2016-08-11T00:06:47.805Z,9
2016-08-11T00:06:57.801Z,8.9
2016-08-11T00:07:07.803Z,8.9
2016-08-11T00:07:17.801Z,8.9
2016-08-11T00:07:27.801Z,8.9
2016-08-11T00:07:37.800Z,8.9
2016-08-11T00:07:47.800Z,8.9
2016-08-11T00:07:57.798Z,8.9
2016-08-11T00:08:07.798Z,9
2016-08-11T00:08:17.799Z,8.9
2016-08-11T00:08:27.797Z,8.9
2016-08-11T00:08:37.799Z,8.9
2016-08-11T00:08:47.796Z,9.1
2016-08-11T00:08:57.795Z,9.1
2016-08-11T00:09:07.797Z,9
2016-08-11T00:09:17.795Z,8.9
2016-08-11T00:09:27.794Z,9
2016-08-11T00:09:37.794Z,8.9
2016-08-11T00:09:47.791Z,9
2016-08-11T00:09:57.792Z,8.9
2016-08-11T00:10:07.792Z,9
2016-08-11T00:10:17.793Z,8.9
2016-08-11T00:10:27.792Z,9
2016-08-11T00:10:37.792Z,9
2016-08-11T00:10:47.790Z,8.9
2016-08-11T00:10:57.790Z,9
2016-08-11T00:11:07.788Z,9
2016-08-11T00:11:17.789Z,9
2016-08-11T00:11:27.786Z,8.9
2016-08-11T00:11:37.788Z,9
2016-08-11T00:11:47.788Z,9
2016-08-11T00:11:57.785Z,9
2016-08-11T00:12:07.787Z,9
2016-08-11T00:12:17.786Z,9
2016-08-11T00:12:27.784Z,9
2016-08-11T00:12:37.785Z,9
2016-08-11T00:12:47.790Z,9
2016-08-11T00:12:57.784Z,8.9
2016-08-11T00:13:07.783Z,8.9
2016-08-11T00:13:27.782Z,8.9
2016-08-11T00:13:37.780Z,8.9
2016-08-11T00:13:47.780Z,8.9
2016-08-11T00:13:57.780Z,8.8
2016-08-11T00:14:07.780Z,8.9
2016-08-11T00:14:17.778Z,8.8
2016-08-11T00:14:27.778Z,8.8
2016-08-11T00:14:37.777Z,8.9
2016-08-11T00:14:47.777Z,8.9
2016-08-11T00:14:57.779Z,8.9
2016-08-11T00:15:07.777Z,8.9
2016-08-11T00:15:17.776Z,8.8
2016-08-11T00:15:27.775Z,8.9
2016-08-11T00:15:37.777Z,8.7
2016-08-11T00:15:47.773Z,8.8
2016-08-11T00:15:57.774Z,8.8
2016-08-11T00:16:07.776Z,8.8
2016-08-11T00:16:17.774Z,8.7
2016-08-11T00:16:27.770Z,8.8
2016-08-11T00:16:37.773Z,8.7
2016-08-11T00:16:47.771Z,8.8
2016-08-11T00:16:57.769Z,8.7
2016-08-11T00:17:07.769Z,8.7
2016-08-11T00:17:17.770Z,8.7
2016-08-11T00:17:27.770Z,8.7
2016-08-11T00:17:37.770Z,8.7
2016-08-11T00:17:47.768Z,8.8
2016-08-11T00:17:57.769Z,8.7
2016-08-11T00:18:07.766Z,8.8
2016-08-11T00:18:17.764Z,8.7
2016-08-11T00:18:27.770Z,8.7
2016-08-11T00:18:37.763Z,8.7
2016-08-11T00:18:47.764Z,8.7
2016-08-11T00:18:57.763Z,8.7
2016-08-11T00:19:07.766Z,8.7
2016-08-11T00:19:17.765Z,8.8
2016-08-11T00:19:27.760Z,8.8
2016-08-11T00:19:47.761Z,8.8
2016-08-11T00:19:57.762Z,8.7
2016-08-11T00:20:07.761Z,8.8
2016-08-11T00:20:17.760Z,8.8
2016-08-11T00:20:27.759Z,8.7
2016-08-11T00:20:37.758Z,8.7
2016-08-11T00:20:47.757Z,8.8
2016-08-11T00:20:57.758Z,8.8
2016-08-11T00:21:07.765Z,8.8
2016-08-11T00:21:17.756Z,8.8
2016-08-11T00:21:27.754Z,8.7
2016-08-11T00:21:37.754Z,8.8
2016-08-11T00:21:47.755Z,8.8
2016-08-11T00:21:57.754Z,8.8
2016-08-11T00:22:07.754Z,8.8
2016-08-11T00:22:17.753Z,8.8
2016-08-11T00:22:27.754Z,8.8
2016-08-11T00:22:37.751Z,8.7
2016-08-11T00:22:47.752Z,8.8
2016-08-11T00:22:57.751Z,8.8
2016-08-11T00:23:07.751Z,8.8
2016-08-11T00:23:17.753Z,8.8
2016-08-11T00:23:27.750Z,8.7
2016-08-11T00:23:37.750Z,8.7
2016-08-11T00:23:47.752Z,8.7
2016-08-11T00:23:57.747Z,8.6
2016-08-11T00:24:07.747Z,8.7
2016-08-11T00:24:17.745Z,8.6
2016-08-11T00:24:27.747Z,8.6
2016-08-11T00:24:37.749Z,8.6
2016-08-11T00:24:47.744Z,8.6
2016-08-11T00:24:57.744Z,8.7
2016-08-11T00:25:07.746Z,8.7
2016-08-11T00:25:17.750Z,8.7
2016-08-11T00:25:27.745Z,8.6
2016-08-11T00:25:37.752Z,8.7
2016-08-11T00:25:47.741Z,8.6
2016-08-11T00:25:57.742Z,8.7
2016-08-11T00:26:07.738Z,8.7
2016-08-11T00:26:17.742Z,8.7
2016-08-11T00:26:27.741Z,8.7
2016-08-11T00:26:37.738Z,8.6
2016-08-11T00:26:47.739Z,8.6
2016-08-11T00:26:57.737Z,8.7
2016-08-11T00:27:07.736Z,8.7
2016-08-11T00:27:17.739Z,8.7
2016-08-11T00:27:27.734Z,8.6
2016-08-11T00:27:37.736Z,8.7
2016-08-11T00:27:47.735Z,8.7
2016-08-11T00:27:57.735Z,8.6
2016-08-11T00:28:07.736Z,8.6
2016-08-11T00:28:27.734Z,8.7
2016-08-11T00:28:37.734Z,8.6
2016-08-11T00:28:47.731Z,8.6
2016-08-11T00:28:57.730Z,8.6
2016-08-11T00:29:07.729Z,8.6
2016-08-11T00:29:17.729Z,8.6
2016-08-11T00:29:27.732Z,8.6
2016-08-11T00:29:37.728Z,8.6
2016-08-11T00:29:47.727Z,8.6
2016-08-11T00:29:57.727Z,8.6
2016-08-11T00:30:07.728Z,8.6
2016-08-11T00:30:17.727Z,8.6
2016-08-11T00:30:27.728Z,8.6
2016-08-11T00:30:37.724Z,8.6
2016-08-11T00:30:47.726Z,8.6
2016-08-11T00:30:57.725Z,8.6
2016-08-11T00:31:07.722Z,8.6
2016-08-11T00:31:17.723Z,8.6
2016-08-11T00:31:27.722Z,8.6
2016-08-11T00:31:37.721Z,8.6
2016-08-11T00:31:47.722Z,8.6
2016-08-11T00:31:57.721Z,8.6
2016-08-11T00:32:07.720Z,8.6
2016-08-11T00:32:17.718Z,8.6
2016-08-11T00:32:27.721Z,8.6
2016-08-11T00:32:37.719Z,8.6
2016-08-11T00:32:47.718Z,8.6
2016-08-11T00:32:57.718Z,8.6
2016-08-11T00:33:07.719Z,8.6
2016-08-11T00:33:17.716Z,8.6
2016-08-11T00:33:27.717Z,8.6
2016-08-11T00:33:37.716Z,8.5
2016-08-11T00:33:47.716Z,8.6
2016-08-11T00:33:57.716Z,8.6
2016-08-11T00:34:07.718Z,8.6
2016-08-11T00:34:17.712Z,8.6
2016-08-11T00:34:27.713Z,8.6
2016-08-11T00:34:37.711Z,8.6
2016-08-11T00:34:47.709Z,8.6
2016-08-11T00:34:57.714Z,8.6
2016-08-11T00:35:07.709Z,8.5
2016-08-11T00:35:17.708Z,8.6
2016-08-11T00:35:27.710Z,8.6
2016-08-11T00:35:37.709Z,8.6
2016-08-11T00:35:47.710Z,8.6
2016-08-11T00:35:57.709Z,8.6
2016-08-11T00:36:07.706Z,8.6
2016-08-11T00:36:17.707Z,8.6
2016-08-11T00:36:27.706Z,8.6
2016-08-11T00:36:37.707Z,8.6
2016-08-11T00:36:47.709Z,8.5
2016-08-11T00:36:57.707Z,8.5
2016-08-11T00:37:07.703Z,8.6
2016-08-11T00:37:17.703Z,8.5
2016-08-11T00:37:27.702Z,8.5
2016-08-11T00:37:37.704Z,8.5
2016-08-11T00:37:47.698Z,8.5
2016-08-11T00:37:57.707Z,8.5
2016-08-11T00:38:07.700Z,8.5
2016-08-11T00:38:17.699Z,8.6
2016-08-11T00:38:27.700Z,8.5
2016-08-11T00:38:37.697Z,8.6
2016-08-11T00:38:47.700Z,8.5
2016-08-11T00:38:57.699Z,8.4
2016-08-11T00:39:07.698Z,8.5
2016-08-11T00:39:17.697Z,8.5
2016-08-11T00:39:27.696Z,8.4
2016-08-11T00:39:37.696Z,8.4
2016-08-11T00:39:47.697Z,8.5
2016-08-11T00:39:57.694Z,8.4
2016-08-11T00:40:07.693Z,8.3
2016-08-11T00:40:17.696Z,8.4
2016-08-11T00:40:27.691Z,8.3
2016-08-11T00:40:37.691Z,8.3
2016-08-11T00:40:47.691Z,8.4
2016-08-11T00:40:57.691Z,8.3
2016-08-11T00:41:07.690Z,8.4
2016-08-11T00:41:17.689Z,8.3
2016-08-11T00:41:27.690Z,8.4
2016-08-11T00:41:37.690Z,8.4
2016-08-11T00:41:47.688Z,8.4
2016-08-11T00:41:57.688Z,8.4
2016-08-11T00:42:07.685Z,8.4
2016-08-11T00:42:17.693Z,8.4
2016-08-11T00:42:27.688Z,8.4
2016-08-11T00:42:37.684Z,8.4
2016-08-11T00:42:47.683Z,8.4
2016-08-11T00:42:57.683Z,8.4
2016-08-11T00:43:07.683Z,8.4
2016-08-11T00:43:17.681Z,8.4
2016-08-11T00:43:37.680Z,8.5
2016-08-11T00:43:47.682Z,8.4
2016-08-11T00:43:57.680Z,8.5
2016-08-11T00:44:07.684Z,8.4
2016-08-11T00:44:17.679Z,8.4
2016-08-11T00:44:27.680Z,8.4
2016-08-11T00:44:37.677Z,8.5
2016-08-11T00:44:47.678Z,8.5
2016-08-11T00:44:57.676Z,8.5
2016-08-11T00:45:07.677Z,8.4
2016-08-11T00:45:17.677Z,8.5
2016-08-11T00:45:27.674Z,8.4
2016-08-11T00:45:37.675Z,8.4
2016-08-11T00:45:47.674Z,8.4
2016-08-11T00:45:57.673Z,8.5
2016-08-11T00:46:07.674Z,8.5
2016-08-11T00:46:17.673Z,8.4
2016-08-11T00:46:27.671Z,8.5
2016-08-11T00:46:37.670Z,8.5
2016-08-11T00:46:47.672Z,8.4
2016-08-11T00:46:57.669Z,8.4
2016-08-11T00:47:07.669Z,8.4
2016-08-11T00:47:17.672Z,8.4
2016-08-11T00:47:27.668Z,8.4
2016-08-11T00:47:37.671Z,8.4
2016-08-11T00:47:47.666Z,8.3
2016-08-11T00:47:57.668Z,8.3
2016-08-11T00:48:07.667Z,8.4
2016-08-11T00:48:17.665Z,8.3
2016-08-11T00:48:27.665Z,8.3
2016-08-11T00:48:37.664Z,8.3
2016-08-11T00:48:47.664Z,8.3
2016-08-11T00:48:57.666Z,8.3
2016-08-11T00:49:07.666Z,8.3
2016-08-11T00:49:17.662Z,8.4
2016-08-11T00:49:27.662Z,8.3
2016-08-11T00:49:37.661Z,8.3
2016-08-11T00:49:47.659Z,8.3
2016-08-11T00:49:57.661Z,8.3
2016-08-11T00:50:07.659Z,8.3
2016-08-11T00:50:17.658Z,8.3
2016-08-11T00:50:27.658Z,8.3
2016-08-11T00:50:37.659Z,8.3
2016-08-11T00:50:47.658Z,8.3
2016-08-11T00:50:57.657Z,8.3
2016-08-11T00:51:07.656Z,8.4
2016-08-11T00:51:17.656Z,8.3
2016-08-11T00:51:27.653Z,8.3
2016-08-11T00:51:37.653Z,8.2
2016-08-11T00:51:47.654Z,8.3
2016-08-11T00:51:57.651Z,8.2
2016-08-11T00:52:07.653Z,8.3
2016-08-11T00:52:17.652Z,8.2
2016-08-11T00:52:27.650Z,8.2
2016-08-11T00:52:37.651Z,8.2
2016-08-11T00:52:47.648Z,8.4
2016-08-11T00:52:57.650Z,8.3
2016-08-11T00:53:07.650Z,8.3
2016-08-11T00:53:17.650Z,8.3
2016-08-11T00:53:27.648Z,8.3
2016-08-11T00:53:37.646Z,8.3
2016-08-11T00:53:47.647Z,8.2
2016-08-11T00:53:57.647Z,8.2
2016-08-11T00:54:07.645Z,8.3
2016-08-11T00:54:17.645Z,8.3
2016-08-11T00:54:27.642Z,8.2
2016-08-11T00:54:37.651Z,8.2
2016-08-11T00:54:47.642Z,8.2
2016-08-11T00:54:57.642Z,8.2
2016-08-11T00:55:07.642Z,8.3
2016-08-11T00:55:17.640Z,8.3
2016-08-11T00:55:27.654Z,8.2
2016-08-11T00:55:37.641Z,8.2
2016-08-11T00:55:47.638Z,8.2
2016-08-11T00:55:57.639Z,8.3
2016-08-11T00:56:07.646Z,8.2
2016-08-11T00:56:17.639Z,8.2
2016-08-11T00:56:27.637Z,8.1
2016-08-11T00:56:37.636Z,8.2
2016-08-11T00:56:47.637Z,8.2
2016-08-11T00:56:57.635Z,8.2
2016-08-11T00:57:07.634Z,8.3
2016-08-11T00:57:17.634Z,8.2
2016-08-11T00:57:27.632Z,8.2
2016-08-11T00:57:37.633Z,8.2
2016-08-11T00:57:47.631Z,8.2
2016-08-11T00:57:57.633Z,8.2
2016-08-11T00:58:07.632Z,8.2
2016-08-11T00:58:17.629Z,8.1
2016-08-11T00:58:37.629Z,8.1
2016-08-11T00:58:47.628Z,8.2
2016-08-11T00:58:57.630Z,8.2
2016-08-11T00:59:07.629Z,8.2
2016-08-11T00:59:17.626Z,8.2
2016-08-11T00:59:27.625Z,8.3
2016-08-11T00:59:37.626Z,8.1
2016-08-11T00:59:47.624Z,8.2
2016-08-11T00:59:57.623Z,8.2
2016-08-11T01:00:07.623Z,8.2
2016-08-11T01:00:17.623Z,8.2
2016-08-11T01:00:27.627Z,8.2
2016-08-11T01:00:37.621Z,8.2
2016-08-11T01:00:47.621Z,8.2
2016-08-11T01:00:57.620Z,8.2
2016-08-11T01:01:07.619Z,8.1
2016-08-11T01:01:17.620Z,8.2
2016-08-11T01:01:27.622Z,8.1
2016-08-11T01:01:37.616Z,8.3
2016-08-11T01:01:47.618Z,8.2
2016-08-11T01:01:57.617Z,8.2
2016-08-11T01:02:07.617Z,8.3
2016-08-11T01:02:17.614Z,8.2
2016-08-11T01:02:27.614Z,8.3
2016-08-11T01:02:37.614Z,8.2
2016-08-11T01:02:47.613Z,8.2
2016-08-11T01:02:57.617Z,8.3
2016-08-11T01:03:07.612Z,8.2
2016-08-11T01:03:17.610Z,8.2
2016-08-11T01:03:27.610Z,8.2
2016-08-11T01:03:37.610Z,8.2
2016-08-11T01:03:47.610Z,8.3
2016-08-11T01:03:57.610Z,8.2
2016-08-11T01:04:07.610Z,8.2
2016-08-11T01:04:17.606Z,8.2
2016-08-11T01:04:27.606Z,8.3
2016-08-11T01:04:37.610Z,8.4
2016-08-11T01:04:47.607Z,8.2
2016-08-11T01:04:57.607Z,8.3
2016-08-11T01:05:07.607Z,8.2
2016-08-11T01:05:17.606Z,8.2
2016-08-11T01:05:27.604Z,8.3
2016-08-11T01:05:37.604Z,8.2
2016-08-11T01:05:47.604Z,8.2
2016-08-11T01:05:57.601Z,8.2
2016-08-11T01:06:07.600Z,8.3
2016-08-11T01:06:17.601Z,8.2
2016-08-11T01:06:27.600Z,8.2
2016-08-11T01:06:37.600Z,8.2
2016-08-11T01:06:47.598Z,8.3
2016-08-11T01:06:57.598Z,8.2
2016-08-11T01:07:07.598Z,8.2
2016-08-11T01:07:17.597Z,8.2
2016-08-11T01:07:27.597Z,8.2
2016-08-11T01:07:37.597Z,8.2
2016-08-11T01:07:47.597Z,8.2
2016-08-11T01:07:57.595Z,8.2
2016-08-11T01:08:07.597Z,8.2
2016-08-11T01:08:17.594Z,8.2
2016-08-11T01:08:27.595Z,8.2
2016-08-11T01:08:37.592Z,8.2
2016-08-11T01:08:47.590Z,8.2
2016-08-11T01:08:57.594Z,8.2
2016-08-11T01:09:07.594Z,8.1
2016-08-11T01:09:17.590Z,8.1
2016-08-11T01:09:27.589Z,8.2
2016-08-11T01:09:37.593Z,8.2
2016-08-11T01:09:47.587Z,8.2
2016-08-11T01:09:57.587Z,8.2
2016-08-11T01:10:07.586Z,8.2
2016-08-11T01:10:17.584Z,8.1
2016-08-11T01:10:27.585Z,8.1
2016-08-11T01:10:37.585Z,8.2
2016-08-11T01:10:47.585Z,8.1
2016-08-11T01:10:57.584Z,8.1
2016-08-11T01:11:07.583Z,8.1
2016-08-11T01:11:17.584Z,8.1
2016-08-11T01:11:27.583Z,8.1
2016-08-11T01:11:37.582Z,8.1
2016-08-11T01:11:47.581Z,8.1
2016-08-11T01:11:57.586Z,8.2
2016-08-11T01:12:07.580Z,8.1
2016-08-11T01:12:17.579Z,8.1
2016-08-11T01:12:27.578Z,8.2
2016-08-11T01:12:37.579Z,8.1
2016-08-11T01:12:47.578Z,8.2
2016-08-11T01:12:57.577Z,8.2
2016-08-11T01:13:07.576Z,8.2
2016-08-11T01:13:17.576Z,8.2
2016-08-11T01:13:37.573Z,8.1
2016-08-11T01:13:47.573Z,8.1
2016-08-11T01:13:57.572Z,8.1
2016-08-11T01:14:07.573Z,8.1
2016-08-11T01:14:17.571Z,8.2
2016-08-11T01:14:27.580Z,8.2
2016-08-11T01:14:37.569Z,8.1
2016-08-11T01:14:47.570Z,8.1
2016-08-11T01:14:57.569Z,8.1
2016-08-11T01:15:07.569Z,8.1
2016-08-11T01:15:17.568Z,8.1
2016-08-11T01:15:27.567Z,8.1
2016-08-11T01:15:37.566Z,8
2016-08-11T01:15:47.566Z,8.1
2016-08-11T01:15:57.565Z,8
2016-08-11T01:16:07.563Z,8
2016-08-11T01:16:17.566Z,8
2016-08-11T01:16:27.562Z,8
2016-08-11T01:16:37.562Z,8
2016-08-11T01:16:47.566Z,8
2016-08-11T01:16:57.564Z,8.1
2016-08-11T01:17:07.561Z,8
2016-08-11T01:17:17.563Z,8
2016-08-11T01:17:27.558Z,7.9
2016-08-11T01:17:37.560Z,7.9
2016-08-11T01:17:47.558Z,8
2016-08-11T01:17:57.557Z,7.9
2016-08-11T01:18:07.557Z,7.9
2016-08-11T01:18:17.559Z,7.9
2016-08-11T01:18:27.557Z,7.9
2016-08-11T01:18:37.556Z,7.9
2016-08-11T01:18:47.553Z,8
2016-08-11T01:18:57.555Z,8
2016-08-11T01:19:07.554Z,7.9
2016-08-11T01:19:17.553Z,7.9
2016-08-11T01:19:27.558Z,7.8
2016-08-11T01:19:37.552Z,8
2016-08-11T01:19:47.549Z,7.9
2016-08-11T01:19:57.554Z,7.8
2016-08-11T01:20:07.549Z,8
2016-08-11T01:20:17.550Z,7.8
2016-08-11T01:20:27.549Z,7.9
2016-08-11T01:20:37.545Z,7.9
2016-08-11T01:20:47.547Z,8
2016-08-11T01:20:57.545Z,7.9
2016-08-11T01:21:07.545Z,8
2016-08-11T01:21:17.545Z,7.9
2016-08-11T01:21:27.545Z,7.9
2016-08-11T01:21:37.549Z,8
2016-08-11T01:21:47.544Z,8
2016-08-11T01:21:57.545Z,8
2016-08-11T01:22:07.541Z,7.9
2016-08-11T01:22:17.544Z,7.9
2016-08-11T01:22:27.556Z,7.9
2016-08-11T01:22:37.545Z,8
2016-08-11T01:22:47.539Z,8
2016-08-11T01:22:57.540Z,7.9
2016-08-11T01:23:07.540Z,7.9
2016-08-11T01:23:17.541Z,8
2016-08-11T01:23:27.536Z,8
2016-08-11T01:23:37.535Z,8
2016-08-11T01:23:47.536Z,8
2016-08-11T01:23:57.539Z,8
2016-08-11T01:24:07.534Z,7.9
2016-08-11T01:24:17.534Z,7.9
2016-08-11T01:24:27.533Z,7.9
2016-08-11T01:24:37.533Z,7.9
2016-08-11T01:24:47.534Z,7.9
2016-08-11T01:24:57.530Z,8
2016-08-11T01:25:07.531Z,7.8
2016-08-11T01:25:17.530Z,7.9
2016-08-11T01:25:27.527Z,7.9
2016-08-11T01:25:37.528Z,7.9
2016-08-11T01:25:47.527Z,7.8
2016-08-11T01:25:57.527Z,8
2016-08-11T01:26:07.524Z,7.9
2016-08-11T01:26:17.527Z,8
2016-08-11T01:26:27.525Z,7.9
2016-08-11T01:26:37.523Z,8
2016-08-11T01:26:47.524Z,7.9
2016-08-11T01:26:57.525Z,7.9
2016-08-11T01:27:07.523Z,7.9
2016-08-11T01:27:17.528Z,7.8
2016-08-11T01:27:27.521Z,8
2016-08-11T01:27:37.519Z,7.9
2016-08-11T01:27:47.522Z,8
2016-08-11T01:27:57.518Z,8
2016-08-11T01:28:07.521Z,8
2016-08-11T01:28:17.520Z,7.9
2016-08-11T01:28:37.517Z,8
2016-08-11T01:28:47.514Z,7.9
2016-08-11T01:28:57.513Z,7.9
2016-08-11T01:29:07.514Z,7.9
2016-08-11T01:29:17.515Z,8
2016-08-11T01:29:27.514Z,8
2016-08-11T01:29:37.514Z,8
2016-08-11T01:29:47.513Z,7.9
2016-08-11T01:29:57.513Z,7.9
2016-08-11T01:30:07.515Z,7.9
2016-08-11T01:30:17.510Z,8
2016-08-11T01:30:27.509Z,7.9
2016-08-11T01:30:37.511Z,8
2016-08-11T01:30:47.509Z,7.9
2016-08-11T01:30:57.507Z,8
2016-08-11T01:31:07.504Z,7.8
2016-08-11T01:31:17.507Z,7.9
2016-08-11T01:31:27.505Z,7.9
2016-08-11T01:31:37.507Z,7.9
2016-08-11T01:31:47.505Z,7.9
2016-08-11T01:31:57.503Z,7.8
2016-08-11T01:32:07.505Z,7.9
2016-08-11T01:32:17.505Z,7.9
2016-08-11T01:32:27.500Z,7.9
2016-08-11T01:32:37.501Z,7.8
2016-08-11T01:32:47.499Z,7.9
2016-08-11T01:32:57.501Z,7.9
2016-08-11T01:33:07.499Z,7.9
2016-08-11T01:33:17.500Z,7.9
2016-08-11T01:33:27.497Z,7.9
2016-08-11T01:33:37.497Z,7.9
2016-08-11T01:33:47.497Z,7.9
2016-08-11T01:33:57.499Z,7.9
2016-08-11T01:34:07.496Z,7.9
2016-08-11T01:34:17.493Z,7.9
2016-08-11T01:34:27.495Z,7.9
2016-08-11T01:34:37.496Z,7.8
2016-08-11T01:34:47.494Z,7.8
2016-08-11T01:34:57.496Z,7.9
2016-08-11T01:35:07.491Z,7.8
2016-08-11T01:35:17.492Z,7.9
2016-08-11T01:35:27.488Z,7.9
2016-08-11T01:35:37.491Z,7.9
2016-08-11T01:35:47.489Z,7.9
2016-08-11T01:35:57.488Z,7.8
2016-08-11T01:36:07.489Z,7.9
2016-08-11T01:36:17.488Z,7.8
2016-08-11T01:36:27.486Z,7.9
2016-08-11T01:36:37.486Z,7.9
2016-08-11T01:36:47.485Z,7.9
2016-08-11T01:36:57.489Z,7.8
2016-08-11T01:37:07.484Z,7.9
2016-08-11T01:37:17.483Z,7.9
2016-08-11T01:37:27.483Z,7.8
2016-08-11T01:37:37.484Z,7.9
2016-08-11T01:37:47.482Z,7.9
2016-08-11T01:37:57.483Z,7.9
2016-08-11T01:38:07.480Z,7.9
2016-08-11T01:38:17.479Z,7.8
2016-08-11T01:38:27.479Z,7.9
2016-08-11T01:38:37.478Z,7.8
2016-08-11T01:38:47.479Z,7.9
2016-08-11T01:38:57.479Z,7.9
2016-08-11T01:39:07.476Z,7.9
2016-08-11T01:39:17.477Z,7.8
2016-08-11T01:39:27.476Z,7.9
2016-08-11T01:39:37.474Z,7.9
2016-08-11T01:39:47.475Z,7.9
2016-08-11T01:39:57.473Z,7.9
2016-08-11T01:40:07.472Z,7.9
2016-08-11T01:40:17.473Z,7.9
2016-08-11T01:40:27.472Z,7.9
2016-08-11T01:40:37.472Z,7.9
2016-08-11T01:40:47.474Z,7.9
2016-08-11T01:40:57.470Z,7.9
2016-08-11T01:41:07.470Z,7.9
2016-08-11T01:41:17.469Z,7.9
2016-08-11T01:41:27.466Z,7.8
2016-08-11T01:41:37.467Z,7.8
2016-08-11T01:41:47.465Z,7.8
2016-08-11T01:41:57.464Z,7.9
2016-08-11T01:42:07.466Z,7.8
2016-08-11T01:42:17.463Z,7.9
2016-08-11T01:42:27.463Z,7.9
2016-08-11T01:42:37.460Z,7.8
2016-08-11T01:42:47.461Z,7.9
2016-08-11T01:42:57.462Z,7.9
2016-08-11T01:43:07.459Z,7.8
2016-08-11T01:43:17.459Z,7.8
2016-08-11T01:43:37.459Z,7.8
2016-08-11T01:43:47.459Z,7.8
2016-08-11T01:43:57.456Z,7.7
2016-08-11T01:44:07.461Z,7.7
2016-08-11T01:44:17.456Z,7.7
2016-08-11T01:44:27.455Z,7.7
2016-08-11T01:44:37.455Z,7.7
2016-08-11T01:44:47.453Z,7.7
2016-08-11T01:44:57.452Z,7.7
2016-08-11T01:45:07.452Z,7.6
2016-08-11T01:45:17.456Z,7.7
2016-08-11T01:45:27.453Z,7.7
2016-08-11T01:45:37.451Z,7.7
2016-08-11T01:45:47.449Z,7.7
2016-08-11T01:45:57.447Z,7.7
2016-08-11T01:46:07.452Z,7.7
2016-08-11T01:46:17.462Z,7.7
2016-08-11T01:46:27.449Z,7.7
2016-08-11T01:46:37.449Z,7.7
2016-08-11T01:46:47.459Z,7.7
2016-08-11T01:46:57.452Z,7.7
2016-08-11T01:47:07.444Z,7.7
2016-08-11T01:47:17.443Z,7.6
2016-08-11T01:47:27.443Z,7.7
2016-08-11T01:47:37.441Z,7.7
2016-08-11T01:47:47.443Z,7.6
2016-08-11T01:47:57.443Z,7.7
2016-08-11T01:48:07.440Z,7.7
2016-08-11T01:48:17.440Z,7.7
2016-08-11T01:48:27.438Z,7.6
2016-08-11T01:48:37.438Z,7.6
2016-08-11T01:48:47.437Z,7.6
2016-08-11T01:48:57.436Z,7.7
2016-08-11T01:49:07.436Z,7.7
2016-08-11T01:49:17.440Z,7.7
2016-08-11T01:49:27.437Z,7.6
2016-08-11T01:49:37.435Z,7.6
2016-08-11T01:49:47.434Z,7.6
2016-08-11T01:49:57.434Z,7.7
2016-08-11T01:50:07.437Z,7.7
2016-08-11T01:50:17.433Z,7.6
2016-08-11T01:50:27.434Z,7.7
2016-08-11T01:50:37.430Z,7.6
2016-08-11T01:50:47.430Z,7.7
2016-08-11T01:50:57.429Z,7.6
2016-08-11T01:51:07.429Z,7.7
2016-08-11T01:51:17.429Z,7.7
2016-08-11T01:51:27.424Z,7.7
2016-08-11T01:51:37.427Z,7.7
2016-08-11T01:51:47.425Z,7.7
2016-08-11T01:51:57.427Z,7.7
2016-08-11T01:52:07.425Z,7.7
2016-08-11T01:52:17.423Z,7.6
2016-08-11T01:52:27.425Z,7.6
2016-08-11T01:52:37.424Z,7.7
2016-08-11T01:52:47.423Z,7.7
2016-08-11T01:52:57.421Z,7.7
2016-08-11T01:53:07.421Z,7.7
2016-08-11T01:53:17.420Z,7.7
2016-08-11T01:53:27.419Z,7.6
2016-08-11T01:53:37.418Z,7.6
2016-08-11T01:53:47.418Z,7.7
2016-08-11T01:53:57.419Z,7.7
2016-08-11T01:54:07.415Z,7.6
2016-08-11T01:54:17.419Z,7.6
2016-08-11T01:54:27.414Z,7.7
2016-08-11T01:54:37.411Z,7.7
2016-08-11T01:54:47.412Z,7.7
2016-08-11T01:54:57.412Z,7.7
2016-08-11T01:55:07.414Z,7.7
2016-08-11T01:55:17.414Z,7.7
2016-08-11T01:55:27.411Z,7.5
2016-08-11T01:55:37.410Z,7.6
2016-08-11T01:55:47.411Z,7.6
2016-08-11T01:55:57.411Z,7.6
2016-08-11T01:56:07.410Z,7.6
2016-08-11T01:56:17.412Z,7.6
2016-08-11T01:56:27.407Z,7.5
2016-08-11T01:56:37.407Z,7.6
2016-08-11T01:56:47.405Z,7.6
2016-08-11T01:56:57.404Z,7.7
2016-08-11T01:57:07.405Z,7.7
2016-08-11T01:57:17.402Z,7.6
2016-08-11T01:57:27.401Z,7.7
2016-08-11T01:57:37.402Z,7.6
2016-08-11T01:57:47.398Z,7.6
2016-08-11T01:57:57.400Z,7.6
2016-08-11T01:58:07.398Z,7.7
2016-08-11T01:58:17.405Z,7.6
2016-08-11T01:58:27.400Z,7.7
2016-08-11T01:58:47.398Z,7.7
2016-08-11T01:58:57.401Z,7.7
2016-08-11T01:59:07.395Z,7.7
2016-08-11T01:59:17.396Z,7.7
2016-08-11T01:59:27.396Z,7.7
2016-08-11T01:59:37.394Z,7.7
2016-08-11T01:59:47.395Z,7.7
2016-08-11T01:59:57.392Z,7.7
2016-08-11T02:00:07.393Z,7.7
2016-08-11T02:00:17.391Z,7.7
2016-08-11T02:00:27.393Z,7.7
2016-08-11T02:00:37.389Z,7.7
2016-08-11T02:00:47.389Z,7.6
2016-08-11T02:00:57.389Z,7.6
2016-08-11T02:01:07.389Z,7.6
2016-08-11T02:01:17.386Z,7.5
2016-08-11T02:01:27.387Z,7.6
2016-08-11T02:01:37.386Z,7.6
2016-08-11T02:01:47.385Z,7.7
2016-08-11T02:01:57.384Z,7.6
2016-08-11T02:02:07.384Z,7.6
2016-08-11T02:02:17.383Z,7.5
2016-08-11T02:02:27.381Z,7.6
2016-08-11T02:02:37.380Z,7.6
2016-08-11T02:02:47.378Z,7.6
2016-08-11T02:02:57.385Z,7.6
2016-08-11T02:03:07.379Z,7.6
2016-08-11T02:03:17.380Z,7.7
2016-08-11T02:03:27.380Z,7.6
2016-08-11T02:03:37.379Z,7.7
2016-08-11T02:03:47.384Z,7.6
2016-08-11T02:03:57.376Z,7.7
2016-08-11T02:04:07.375Z,7.6
2016-08-11T02:04:17.377Z,7.7
2016-08-11T02:04:27.373Z,7.6
2016-08-11T02:04:37.375Z,7.7
2016-08-11T02:04:47.372Z,7.7
2016-08-11T02:04:57.374Z,7.6
2016-08-11T02:05:07.374Z,7.7
2016-08-11T02:05:17.372Z,7.6
2016-08-11T02:05:27.373Z,7.7
2016-08-11T02:05:37.372Z,7.6
2016-08-11T02:05:47.370Z,7.6
2016-08-11T02:05:57.369Z,7.7
2016-08-11T02:06:07.366Z,7.6
2016-08-11T02:06:17.372Z,7.7
2016-08-11T02:06:27.366Z,7.6
2016-08-11T02:06:37.367Z,7.7
2016-08-11T02:06:47.370Z,7.5
2016-08-11T02:06:57.364Z,7.7
2016-08-11T02:07:07.363Z,7.7
2016-08-11T02:07:17.361Z,7.6
2016-08-11T02:07:27.361Z,7.6
2016-08-11T02:07:37.368Z,7.7
2016-08-11T02:07:47.360Z,7.6
2016-08-11T02:07:57.360Z,7.7
2016-08-11T02:08:07.359Z,7.7
2016-08-11T02:08:17.360Z,7.6
2016-08-11T02:08:27.359Z,7.6
2016-08-11T02:08:37.355Z,7.6
2016-08-11T02:08:47.355Z,7.6
2016-08-11T02:08:57.358Z,7.6
2016-08-11T02:09:07.358Z,7.6
2016-08-11T02:09:17.355Z,7.6
2016-08-11T02:09:27.354Z,7.6
2016-08-11T02:09:37.354Z,7.6
2016-08-11T02:09:47.354Z,7.6
2016-08-11T02:09:57.351Z,7.6
2016-08-11T02:10:07.351Z,7.7
2016-08-11T02:10:17.351Z,7.6
2016-08-11T02:10:27.351Z,7.6
2016-08-11T02:10:37.348Z,7.6
2016-08-11T02:10:47.349Z,7.6
2016-08-11T02:10:57.348Z,7.6
2016-08-11T02:11:07.347Z,7.7
2016-08-11T02:11:17.348Z,7.6
2016-08-11T02:11:27.344Z,7.6
2016-08-11T02:11:37.345Z,7.6
2016-08-11T02:11:47.347Z,7.5
2016-08-11T02:11:57.340Z,7.6
2016-08-11T02:12:07.344Z,7.6
2016-08-11T02:12:17.347Z,7.7
2016-08-11T02:12:27.340Z,7.6
2016-08-11T02:12:37.341Z,7.7
2016-08-11T02:12:47.347Z,7.6
2016-08-11T02:12:57.340Z,7.7
2016-08-11T02:13:07.338Z,7.7
2016-08-11T02:13:17.338Z,7.7
2016-08-11T02:13:27.338Z,7.7
2016-08-11T02:13:47.335Z,7.7
2016-08-11T02:13:57.336Z,7.7
2016-08-11T02:14:07.334Z,7.6
2016-08-11T02:14:17.335Z,7.7
2016-08-11T02:14:27.331Z,7.6
2016-08-11T02:14:37.333Z,7.7
2016-08-11T02:14:47.333Z,7.6
2016-08-11T02:14:57.331Z,7.6
2016-08-11T02:15:07.332Z,7.6
2016-08-11T02:15:17.332Z,7.6
2016-08-11T02:15:27.330Z,7.6
2016-08-11T02:15:37.336Z,7.6
2016-08-11T02:15:47.328Z,7.7
2016-08-11T02:15:57.328Z,7.6
2016-08-11T02:16:07.329Z,7.7
2016-08-11T02:16:17.326Z,7.7
2016-08-11T02:16:27.323Z,7.7
2016-08-11T02:16:37.326Z,7.7
2016-08-11T02:16:47.322Z,7.7
2016-08-11T02:16:57.323Z,7.6
2016-08-11T02:17:07.323Z,7.6
2016-08-11T02:17:17.323Z,7.7
2016-08-11T02:17:27.325Z,7.7
2016-08-11T02:17:37.321Z,7.7
2016-08-11T02:17:47.318Z,7.7
2016-08-11T02:17:57.319Z,7.7
2016-08-11T02:18:07.316Z,7.7
2016-08-11T02:18:17.318Z,7.6
2016-08-11T02:18:27.316Z,7.7
2016-08-11T02:18:37.316Z,7.7
2016-08-11T02:18:47.315Z,7.6
2016-08-11T02:18:57.315Z,7.6
2016-08-11T02:19:07.313Z,7.6
2016-08-11T02:19:17.313Z,7.6
2016-08-11T02:19:27.312Z,7.6
2016-08-11T02:19:37.311Z,7.6
2016-08-11T02:19:47.311Z,7.6
2016-08-11T02:19:57.310Z,7.6
2016-08-11T02:20:07.312Z,7.6
2016-08-11T02:20:17.315Z,7.6